Nsu Obelisk — H9RZ — position and weather

sailwx.info

Track history (hours):
 
Tides and Currents Weather Stations Pressure Air Temp Water Temp Dewpoint Dewpoint Depression Visibility Wind Speed Wind Dir Waves Ship Positions

Nsu Obelisk

Last reported at 2018-Jun-07 23:56 UTC. Time now 2018-Jun-22 00:01 UTC.
Position S 32°07' E 036°35'.
Warning: this ship's position is 14 days out of date.

Length 299 m; draft 17.8 m.

Type: Cargo ship. MMSI: 357348000.

Date/timePositionNaut miles runAvg speedWind from/ knotsBaromVisibWave heightAir tempDewpointWater temp
2018-Jun-07 23:56S 32°07' E 036°35'13411.4
2018-Jun-07 12:14S 32°51' E 034°05'  
2018-Jun-04 04:18S 34°45' E 018°28'410.8
2018-Jun-04 03:55S 34°44' E 018°23'1610.4
2018-Jun-04 02:21S 34°39' E 018°04'1410.6
2018-Jun-04 01:03S 34°32' E 017°50'210.7
2018-Jun-04 00:55S 34°31' E 017°49'410.7
2018-Jun-04 00:30S 34°29' E 017°44'610.6
2018-Jun-03 23:58S 34°27' E 017°37'510.5
2018-Jun-03 23:28S 34°26' E 017°31'610.4
2018-Jun-03 22:51S 34°24' E 017°24'410.3
2018-Jun-03 22:28S 34°23' E 017°19'  
Track history (hours):
 
Tides and Currents Weather Stations Pressure Air Temp Water Temp Dewpoint Dewpoint Depression Visibility Wind Speed Wind Dir Waves Ship Positions

Nsu Obelisk

Last reported at 2018-Jun-07 23:56 UTC. Time now 2018-Jun-22 00:01 UTC.
Position S 32°07' E 036°35'.
Warning: this ship's position is 14 days out of date.

Length 299 m; draft 17.8 m.

Type: Cargo ship. MMSI: 357348000.

Date/timePositionNaut miles runAvg speedWind from/ knotsBaromVisibWave heightAir tempDewpointWater temp
2018-Jun-07 23:56S 32°07' E 036°35'13411.4
2018-Jun-07 12:14S 32°51' E 034°05'  
2018-Jun-04 04:18S 34°45' E 018°28'410.8
2018-Jun-04 03:55S 34°44' E 018°23'1610.4
2018-Jun-04 02:21S 34°39' E 018°04'1410.6
2018-Jun-04 01:03S 34°32' E 017°50'210.7
2018-Jun-04 00:55S 34°31' E 017°49'410.7
2018-Jun-04 00:30S 34°29' E 017°44'610.6
2018-Jun-03 23:58S 34°27' E 017°37'510.5
2018-Jun-03 23:28S 34°26' E 017°31'610.4
2018-Jun-03 22:51S 34°24' E 017°24'410.3
2018-Jun-03 22:28S 34°23' E 017°19'  

Dump ship's entire track history